sensor_id;sensor_type;location;lat;lon;timestamp;P1;durP1;ratioP1;P2;durP2;ratioP2
11481;SDS011;5797;51.662;6.748;2023-11-21T00:00:03;12.47;;;6.20;;
11481;SDS011;5797;51.662;6.748;2023-11-21T00:02:38;11.37;;;7.07;;
11481;SDS011;5797;51.662;6.748;2023-11-21T00:05:07;9.43;;;5.87;;
11481;SDS011;5797;51.662;6.748;2023-11-21T00:07:36;9.87;;;6.00;;
11481;SDS011;5797;51.662;6.748;2023-11-21T00:10:07;12.40;;;6.20;;
11481;SDS011;5797;51.662;6.748;2023-11-21T00:12:37;15.73;;;6.57;;
11481;SDS011;5797;51.662;6.748;2023-11-21T00:15:09;13.90;;;6.47;;
11481;SDS011;5797;51.662;6.748;2023-11-21T00:17:38;8.40;;;5.77;;
11481;SDS011;5797;51.662;6.748;2023-11-21T00:20:07;10.53;;;6.30;;
11481;SDS011;5797;51.662;6.748;2023-11-21T00:22:39;11.40;;;6.67;;
11481;SDS011;5797;51.662;6.748;2023-11-21T00:25:09;10.70;;;6.60;;
11481;SDS011;5797;51.662;6.748;2023-11-21T00:27:38;11.77;;;6.57;;
11481;SDS011;5797;51.662;6.748;2023-11-21T00:30:06;10.67;;;6.43;;
11481;SDS011;5797;51.662;6.748;2023-11-21T00:32:35;10.10;;;5.20;;
11481;SDS011;5797;51.662;6.748;2023-11-21T00:35:04;12.47;;;6.83;;
11481;SDS011;5797;51.662;6.748;2023-11-21T00:37:33;12.73;;;6.90;;
11481;SDS011;5797;51.662;6.748;2023-11-21T00:40:02;10.53;;;6.30;;
11481;SDS011;5797;51.662;6.748;2023-11-21T00:42:35;9.40;;;6.60;;
11481;SDS011;5797;51.662;6.748;2023-11-21T00:45:04;8.67;;;6.33;;
11481;SDS011;5797;51.662;6.748;2023-11-21T00:47:34;10.90;;;6.33;;
11481;SDS011;5797;51.662;6.748;2023-11-21T00:50:02;15.93;;;7.07;;
11481;SDS011;5797;51.662;6.748;2023-11-21T00:52:32;11.27;;;6.97;;
11481;SDS011;5797;51.662;6.748;2023-11-21T00:55:01;12.87;;;7.43;;
11481;SDS011;5797;51.662;6.748;2023-11-21T00:57:30;10.77;;;7.27;;
11481;SDS011;5797;51.662;6.748;2023-11-21T01:00:00;10.53;;;7.10;;
11481;SDS011;5797;51.662;6.748;2023-11-21T01:02:28;11.70;;;6.10;;
11481;SDS011;5797;51.662;6.748;2023-11-21T01:04:56;7.50;;;6.07;;
11481;SDS011;5797;51.662;6.748;2023-11-21T01:07:25;10.90;;;6.93;;
11481;SDS011;5797;51.662;6.748;2023-11-21T01:09:54;10.80;;;6.40;;
11481;SDS011;5797;51.662;6.748;2023-11-21T01:12:23;9.83;;;6.27;;
11481;SDS011;5797;51.662;6.748;2023-11-21T01:14:52;19.87;;;7.00;;
11481;SDS011;5797;51.662;6.748;2023-11-21T01:17:22;10.83;;;6.73;;
11481;SDS011;5797;51.662;6.748;2023-11-21T01:19:51;10.10;;;6.70;;
11481;SDS011;5797;51.662;6.748;2023-11-21T01:22:19;14.60;;;7.33;;
11481;SDS011;5797;51.662;6.748;2023-11-21T01:24:53;12.57;;;6.70;;
11481;SDS011;5797;51.662;6.748;2023-11-21T01:27:21;11.10;;;6.63;;
11481;SDS011;5797;51.662;6.748;2023-11-21T01:29:49;11.13;;;6.90;;
11481;SDS011;5797;51.662;6.748;2023-11-21T01:32:22;19.47;;;7.37;;
11481;SDS011;5797;51.662;6.748;2023-11-21T01:34:50;12.90;;;7.07;;
11481;SDS011;5797;51.662;6.748;2023-11-21T01:37:19;11.40;;;6.60;;
11481;SDS011;5797;51.662;6.748;2023-11-21T01:39:48;13.10;;;7.87;;
11481;SDS011;5797;51.662;6.748;2023-11-21T01:42:17;11.80;;;6.90;;
11481;SDS011;5797;51.662;6.748;2023-11-21T01:44:45;10.37;;;6.83;;
11481;SDS011;5797;51.662;6.748;2023-11-21T01:47:13;11.03;;;7.03;;
11481;SDS011;5797;51.662;6.748;2023-11-21T01:49:44;11.03;;;6.53;;
11481;SDS011;5797;51.662;6.748;2023-11-21T01:52:13;13.00;;;6.30;;
11481;SDS011;5797;51.662;6.748;2023-11-21T01:54:42;11.83;;;5.77;;
11481;SDS011;5797;51.662;6.748;2023-11-21T01:57:10;12.87;;;7.03;;
11481;SDS011;5797;51.662;6.748;2023-11-21T01:59:38;13.40;;;6.53;;
11481;SDS011;5797;51.662;6.748;2023-11-21T02:02:09;13.90;;;7.27;;
11481;SDS011;5797;51.662;6.748;2023-11-21T02:04:38;14.93;;;7.20;;
11481;SDS011;5797;51.662;6.748;2023-11-21T02:07:08;13.80;;;7.53;;
11481;SDS011;5797;51.662;6.748;2023-11-21T02:09:37;11.03;;;7.23;;
11481;SDS011;5797;51.662;6.748;2023-11-21T02:12:09;14.07;;;8.00;;
11481;SDS011;5797;51.662;6.748;2023-11-21T02:14:39;13.93;;;6.50;;
11481;SDS011;5797;51.662;6.748;2023-11-21T02:17:07;13.17;;;7.40;;
11481;SDS011;5797;51.662;6.748;2023-11-21T02:19:36;11.77;;;6.90;;
11481;SDS011;5797;51.662;6.748;2023-11-21T02:22:05;16.40;;;7.47;;
11481;SDS011;5797;51.662;6.748;2023-11-21T02:24:35;10.60;;;6.73;;
11481;SDS011;5797;51.662;6.748;2023-11-21T02:27:03;14.43;;;6.87;;
11481;SDS011;5797;51.662;6.748;2023-11-21T02:29:33;10.67;;;6.07;;
11481;SDS011;5797;51.662;6.748;2023-11-21T02:32:01;10.70;;;6.43;;
11481;SDS011;5797;51.662;6.748;2023-11-21T02:34:29;11.47;;;6.67;;
11481;SDS011;5797;51.662;6.748;2023-11-21T02:36:57;10.93;;;6.90;;
11481;SDS011;5797;51.662;6.748;2023-11-21T02:39:25;10.17;;;6.73;;
11481;SDS011;5797;51.662;6.748;2023-11-21T02:41:55;12.67;;;7.40;;
11481;SDS011;5797;51.662;6.748;2023-11-21T02:44:23;13.27;;;7.03;;
11481;SDS011;5797;51.662;6.748;2023-11-21T02:46:53;11.07;;;7.10;;
11481;SDS011;5797;51.662;6.748;2023-11-21T02:49:21;12.93;;;7.80;;
11481;SDS011;5797;51.662;6.748;2023-11-21T02:51:49;13.57;;;8.10;;
11481;SDS011;5797;51.662;6.748;2023-11-21T02:54:18;17.60;;;8.23;;
11481;SDS011;5797;51.662;6.748;2023-11-21T02:56:48;16.10;;;7.40;;
11481;SDS011;5797;51.662;6.748;2023-11-21T02:59:18;10.83;;;6.93;;
11481;SDS011;5797;51.662;6.748;2023-11-21T03:01:47;16.23;;;7.33;;
11481;SDS011;5797;51.662;6.748;2023-11-21T03:04:16;14.67;;;7.83;;
11481;SDS011;5797;51.662;6.748;2023-11-21T03:06:45;14.97;;;7.73;;
11481;SDS011;5797;51.662;6.748;2023-11-21T03:09:14;12.40;;;7.47;;
11481;SDS011;5797;51.662;6.748;2023-11-21T03:11:43;17.00;;;7.73;;
11481;SDS011;5797;51.662;6.748;2023-11-21T03:14:11;15.47;;;7.93;;
11481;SDS011;5797;51.662;6.748;2023-11-21T03:16:41;12.17;;;8.07;;
11481;SDS011;5797;51.662;6.748;2023-11-21T03:19:11;15.00;;;8.00;;
11481;SDS011;5797;51.662;6.748;2023-11-21T03:21:39;14.27;;;8.80;;
11481;SDS011;5797;51.662;6.748;2023-11-21T03:24:07;10.30;;;6.87;;
11481;SDS011;5797;51.662;6.748;2023-11-21T03:26:36;16.33;;;8.53;;
11481;SDS011;5797;51.662;6.748;2023-11-21T03:29:05;19.73;;;8.17;;
11481;SDS011;5797;51.662;6.748;2023-11-21T03:31:33;15.17;;;7.90;;
11481;SDS011;5797;51.662;6.748;2023-11-21T03:34:03;12.53;;;8.13;;
11481;SDS011;5797;51.662;6.748;2023-11-21T03:36:31;18.60;;;8.37;;
11481;SDS011;5797;51.662;6.748;2023-11-21T03:39:00;12.10;;;8.13;;
11481;SDS011;5797;51.662;6.748;2023-11-21T03:41:28;17.33;;;8.33;;
11481;SDS011;5797;51.662;6.748;2023-11-21T03:43:56;18.97;;;9.60;;
11481;SDS011;5797;51.662;6.748;2023-11-21T03:46:25;17.73;;;8.67;;
11481;SDS011;5797;51.662;6.748;2023-11-21T03:48:53;15.37;;;8.70;;
11481;SDS011;5797;51.662;6.748;2023-11-21T03:51:23;17.77;;;8.97;;
11481;SDS011;5797;51.662;6.748;2023-11-21T03:53:52;16.90;;;9.50;;
11481;SDS011;5797;51.662;6.748;2023-11-21T03:56:20;17.03;;;8.67;;
11481;SDS011;5797;51.662;6.748;2023-11-21T03:58:49;19.53;;;9.33;;
11481;SDS011;5797;51.662;6.748;2023-11-21T04:01:21;19.07;;;9.70;;
11481;SDS011;5797;51.662;6.748;2023-11-21T04:03:49;15.33;;;8.43;;
11481;SDS011;5797;51.662;6.748;2023-11-21T04:06:18;18.47;;;9.37;;
11481;SDS011;5797;51.662;6.748;2023-11-21T04:08:47;19.63;;;9.83;;
11481;SDS011;5797;51.662;6.748;2023-11-21T04:11:16;15.87;;;9.80;;
11481;SDS011;5797;51.662;6.748;2023-11-21T04:13:44;22.07;;;10.00;;
11481;SDS011;5797;51.662;6.748;2023-11-21T04:16:13;21.40;;;9.67;;
11481;SDS011;5797;51.662;6.748;2023-11-21T04:18:42;17.40;;;9.50;;
11481;SDS011;5797;51.662;6.748;2023-11-21T04:21:10;15.57;;;8.80;;
11481;SDS011;5797;51.662;6.748;2023-11-21T04:23:38;15.27;;;9.20;;
11481;SDS011;5797;51.662;6.748;2023-11-21T04:26:09;15.70;;;8.70;;
11481;SDS011;5797;51.662;6.748;2023-11-21T04:28:37;18.47;;;9.27;;
11481;SDS011;5797;51.662;6.748;2023-11-21T04:31:05;16.73;;;9.00;;
11481;SDS011;5797;51.662;6.748;2023-11-21T04:33:34;16.30;;;8.90;;
11481;SDS011;5797;51.662;6.748;2023-11-21T04:36:02;14.90;;;9.13;;
11481;SDS011;5797;51.662;6.748;2023-11-21T04:38:31;18.77;;;8.27;;
11481;SDS011;5797;51.662;6.748;2023-11-21T04:41:00;17.80;;;8.90;;
11481;SDS011;5797;51.662;6.748;2023-11-21T04:43:31;17.97;;;9.23;;
11481;SDS011;5797;51.662;6.748;2023-11-21T04:45:59;23.60;;;10.37;;
11481;SDS011;5797;51.662;6.748;2023-11-21T04:48:28;19.73;;;10.90;;
11481;SDS011;5797;51.662;6.748;2023-11-21T04:50:58;23.90;;;9.57;;
11481;SDS011;5797;51.662;6.748;2023-11-21T04:53:26;19.30;;;9.47;;
11481;SDS011;5797;51.662;6.748;2023-11-21T04:55:54;17.50;;;8.83;;
11481;SDS011;5797;51.662;6.748;2023-11-21T04:58:23;19.50;;;10.20;;
11481;SDS011;5797;51.662;6.748;2023-11-21T05:00:52;20.43;;;9.60;;
11481;SDS011;5797;51.662;6.748;2023-11-21T05:03:21;28.17;;;12.57;;
11481;SDS011;5797;51.662;6.748;2023-11-21T05:05:50;23.17;;;11.23;;
11481;SDS011;5797;51.662;6.748;2023-11-21T05:08:19;23.53;;;12.57;;
11481;SDS011;5797;51.662;6.748;2023-11-21T05:10:47;36.20;;;14.83;;
11481;SDS011;5797;51.662;6.748;2023-11-21T05:13:16;29.67;;;13.93;;
11481;SDS011;5797;51.662;6.748;2023-11-21T05:15:44;30.63;;;14.30;;
11481;SDS011;5797;51.662;6.748;2023-11-21T05:18:14;19.13;;;9.67;;
11481;SDS011;5797;51.662;6.748;2023-11-21T05:20:42;24.57;;;10.07;;
11481;SDS011;5797;51.662;6.748;2023-11-21T05:23:11;28.47;;;12.67;;
11481;SDS011;5797;51.662;6.748;2023-11-21T05:25:39;33.00;;;13.73;;
11481;SDS011;5797;51.662;6.748;2023-11-21T05:28:08;31.00;;;13.47;;
11481;SDS011;5797;51.662;6.748;2023-11-21T05:30:36;33.70;;;14.17;;
11481;SDS011;5797;51.662;6.748;2023-11-21T05:33:05;39.60;;;14.30;;
11481;SDS011;5797;51.662;6.748;2023-11-21T05:35:35;48.33;;;16.00;;
11481;SDS011;5797;51.662;6.748;2023-11-21T05:38:03;45.03;;;15.97;;
11481;SDS011;5797;51.662;6.748;2023-11-21T05:40:32;37.87;;;16.17;;
11481;SDS011;5797;51.662;6.748;2023-11-21T05:43:00;46.07;;;16.63;;
11481;SDS011;5797;51.662;6.748;2023-11-21T05:45:28;37.20;;;16.10;;
11481;SDS011;5797;51.662;6.748;2023-11-21T05:47:58;79.23;;;17.77;;
11481;SDS011;5797;51.662;6.748;2023-11-21T05:50:26;35.53;;;15.67;;
11481;SDS011;5797;51.662;6.748;2023-11-21T05:52:56;37.97;;;16.67;;
11481;SDS011;5797;51.662;6.748;2023-11-21T05:55:26;60.77;;;18.53;;
11481;SDS011;5797;51.662;6.748;2023-11-21T05:57:55;38.10;;;15.47;;
11481;SDS011;5797;51.662;6.748;2023-11-21T06:00:23;38.53;;;15.97;;
11481;SDS011;5797;51.662;6.748;2023-11-21T06:02:52;34.10;;;15.33;;
11481;SDS011;5797;51.662;6.748;2023-11-21T06:05:22;32.60;;;15.63;;
11481;SDS011;5797;51.662;6.748;2023-11-21T06:07:52;33.10;;;14.83;;
11481;SDS011;5797;51.662;6.748;2023-11-21T06:10:22;33.77;;;15.97;;
11481;SDS011;5797;51.662;6.748;2023-11-21T06:12:51;48.87;;;16.30;;
11481;SDS011;5797;51.662;6.748;2023-11-21T06:15:20;39.03;;;17.10;;
11481;SDS011;5797;51.662;6.748;2023-11-21T06:17:50;28.10;;;14.63;;
11481;SDS011;5797;51.662;6.748;2023-11-21T06:20:20;48.53;;;16.53;;
11481;SDS011;5797;51.662;6.748;2023-11-21T06:22:49;43.97;;;16.07;;
11481;SDS011;5797;51.662;6.748;2023-11-21T06:25:19;38.17;;;15.40;;
11481;SDS011;5797;51.662;6.748;2023-11-21T06:27:49;37.93;;;15.23;;
11481;SDS011;5797;51.662;6.748;2023-11-21T06:30:18;60.77;;;17.27;;
11481;SDS011;5797;51.662;6.748;2023-11-21T06:32:47;50.67;;;16.57;;
11481;SDS011;5797;51.662;6.748;2023-11-21T06:35:15;27.80;;;14.20;;
11481;SDS011;5797;51.662;6.748;2023-11-21T06:37:44;26.30;;;14.50;;
11481;SDS011;5797;51.662;6.748;2023-11-21T06:40:14;36.47;;;15.47;;
11481;SDS011;5797;51.662;6.748;2023-11-21T06:42:43;26.57;;;13.73;;
11481;SDS011;5797;51.662;6.748;2023-11-21T06:45:12;34.33;;;16.03;;
11481;SDS011;5797;51.662;6.748;2023-11-21T06:47:42;33.43;;;14.13;;
11481;SDS011;5797;51.662;6.748;2023-11-21T06:50:10;27.37;;;13.63;;
11481;SDS011;5797;51.662;6.748;2023-11-21T06:52:39;26.17;;;12.80;;
11481;SDS011;5797;51.662;6.748;2023-11-21T06:55:07;27.57;;;14.40;;
11481;SDS011;5797;51.662;6.748;2023-11-21T06:57:36;32.80;;;14.83;;
11481;SDS011;5797;51.662;6.748;2023-11-21T07:00:05;31.17;;;14.53;;
11481;SDS011;5797;51.662;6.748;2023-11-21T07:02:37;32.37;;;14.00;;
11481;SDS011;5797;51.662;6.748;2023-11-21T07:05:06;35.30;;;14.83;;
11481;SDS011;5797;51.662;6.748;2023-11-21T07:07:35;29.73;;;15.23;;
11481;SDS011;5797;51.662;6.748;2023-11-21T07:10:04;30.07;;;14.10;;
11481;SDS011;5797;51.662;6.748;2023-11-21T07:12:33;36.93;;;14.53;;
11481;SDS011;5797;51.662;6.748;2023-11-21T07:15:02;29.43;;;14.67;;
11481;SDS011;5797;51.662;6.748;2023-11-21T07:17:32;28.77;;;13.50;;
11481;SDS011;5797;51.662;6.748;2023-11-21T07:20:05;30.00;;;14.43;;
11481;SDS011;5797;51.662;6.748;2023-11-21T07:22:34;31.50;;;13.90;;
11481;SDS011;5797;51.662;6.748;2023-11-21T07:25:02;30.00;;;13.90;;
11481;SDS011;5797;51.662;6.748;2023-11-21T07:27:31;31.13;;;13.23;;
11481;SDS011;5797;51.662;6.748;2023-11-21T07:30:02;27.93;;;13.93;;
11481;SDS011;5797;51.662;6.748;2023-11-21T07:32:33;28.97;;;13.80;;
11481;SDS011;5797;51.662;6.748;2023-11-21T07:35:01;23.67;;;13.83;;
11481;SDS011;5797;51.662;6.748;2023-11-21T07:37:31;24.57;;;13.23;;
11481;SDS011;5797;51.662;6.748;2023-11-21T07:39:59;26.60;;;13.53;;
11481;SDS011;5797;51.662;6.748;2023-11-21T07:42:27;27.67;;;12.53;;
11481;SDS011;5797;51.662;6.748;2023-11-21T07:44:56;33.50;;;13.20;;
11481;SDS011;5797;51.662;6.748;2023-11-21T07:47:24;30.57;;;13.47;;
11481;SDS011;5797;51.662;6.748;2023-11-21T07:49:54;29.07;;;13.40;;
11481;SDS011;5797;51.662;6.748;2023-11-21T07:52:23;43.33;;;14.13;;
11481;SDS011;5797;51.662;6.748;2023-11-21T07:54:53;23.73;;;12.27;;
11481;SDS011;5797;51.662;6.748;2023-11-21T07:57:22;25.30;;;12.63;;
11481;SDS011;5797;51.662;6.748;2023-11-21T07:59:50;41.90;;;14.97;;
11481;SDS011;5797;51.662;6.748;2023-11-21T08:02:20;34.77;;;14.60;;
11481;SDS011;5797;51.662;6.748;2023-11-21T08:04:49;46.03;;;14.07;;
11481;SDS011;5797;51.662;6.748;2023-11-21T08:07:17;44.30;;;14.27;;
11481;SDS011;5797;51.662;6.748;2023-11-21T08:09:46;43.73;;;13.90;;
11481;SDS011;5797;51.662;6.748;2023-11-21T08:12:18;48.00;;;14.27;;
11481;SDS011;5797;51.662;6.748;2023-11-21T08:14:47;28.63;;;13.33;;
11481;SDS011;5797;51.662;6.748;2023-11-21T08:17:15;40.33;;;16.10;;
11481;SDS011;5797;51.662;6.748;2023-11-21T08:19:44;29.83;;;14.97;;
11481;SDS011;5797;51.662;6.748;2023-11-21T08:22:16;32.30;;;12.97;;
11481;SDS011;5797;51.662;6.748;2023-11-21T08:24:45;36.67;;;13.70;;
11481;SDS011;5797;51.662;6.748;2023-11-21T08:27:13;32.00;;;14.40;;
11481;SDS011;5797;51.662;6.748;2023-11-21T08:29:44;37.30;;;14.57;;
11481;SDS011;5797;51.662;6.748;2023-11-21T08:32:12;37.30;;;14.73;;
11481;SDS011;5797;51.662;6.748;2023-11-21T08:34:41;30.07;;;14.80;;
11481;SDS011;5797;51.662;6.748;2023-11-21T08:37:11;30.03;;;15.17;;
11481;SDS011;5797;51.662;6.748;2023-11-21T08:39:43;31.70;;;15.67;;
11481;SDS011;5797;51.662;6.748;2023-11-21T08:42:11;35.00;;;15.27;;
11481;SDS011;5797;51.662;6.748;2023-11-21T08:44:40;38.80;;;16.67;;
11481;SDS011;5797;51.662;6.748;2023-11-21T08:47:09;45.43;;;15.50;;
11481;SDS011;5797;51.662;6.748;2023-11-21T08:49:38;34.43;;;15.53;;
11481;SDS011;5797;51.662;6.748;2023-11-21T08:52:06;46.60;;;16.77;;
11481;SDS011;5797;51.662;6.748;2023-11-21T08:54:34;44.87;;;15.77;;
11481;SDS011;5797;51.662;6.748;2023-11-21T08:57:03;49.57;;;14.10;;
11481;SDS011;5797;51.662;6.748;2023-11-21T08:59:32;44.53;;;16.30;;
11481;SDS011;5797;51.662;6.748;2023-11-21T09:02:00;40.17;;;15.40;;
11481;SDS011;5797;51.662;6.748;2023-11-21T09:04:30;41.93;;;16.47;;
11481;SDS011;5797;51.662;6.748;2023-11-21T09:06:58;42.33;;;15.43;;
11481;SDS011;5797;51.662;6.748;2023-11-21T09:09:27;52.50;;;15.13;;
11481;SDS011;5797;51.662;6.748;2023-11-21T09:11:56;45.33;;;17.17;;
11481;SDS011;5797;51.662;6.748;2023-11-21T09:14:27;34.93;;;15.27;;
11481;SDS011;5797;51.662;6.748;2023-11-21T09:16:55;30.63;;;15.57;;
11481;SDS011;5797;51.662;6.748;2023-11-21T09:19:24;35.73;;;15.73;;
11481;SDS011;5797;51.662;6.748;2023-11-21T09:21:54;35.67;;;15.73;;
11481;SDS011;5797;51.662;6.748;2023-11-21T09:24:24;33.17;;;14.53;;
11481;SDS011;5797;51.662;6.748;2023-11-21T09:26:52;33.40;;;15.63;;
11481;SDS011;5797;51.662;6.748;2023-11-21T09:29:21;36.90;;;15.90;;
11481;SDS011;5797;51.662;6.748;2023-11-21T09:31:49;51.73;;;16.93;;
11481;SDS011;5797;51.662;6.748;2023-11-21T09:34:18;36.30;;;15.73;;
11481;SDS011;5797;51.662;6.748;2023-11-21T09:36:46;37.97;;;15.70;;
11481;SDS011;5797;51.662;6.748;2023-11-21T09:39:16;39.43;;;15.60;;
11481;SDS011;5797;51.662;6.748;2023-11-21T09:41:46;39.10;;;15.57;;
11481;SDS011;5797;51.662;6.748;2023-11-21T09:44:17;37.50;;;14.37;;
11481;SDS011;5797;51.662;6.748;2023-11-21T09:46:47;37.40;;;14.13;;
11481;SDS011;5797;51.662;6.748;2023-11-21T09:49:17;31.07;;;14.77;;
11481;SDS011;5797;51.662;6.748;2023-11-21T09:51:47;35.50;;;14.67;;
11481;SDS011;5797;51.662;6.748;2023-11-21T09:54:17;36.60;;;14.57;;
11481;SDS011;5797;51.662;6.748;2023-11-21T09:56:48;43.07;;;15.47;;
11481;SDS011;5797;51.662;6.748;2023-11-21T09:59:17;33.07;;;14.23;;
11481;SDS011;5797;51.662;6.748;2023-11-21T10:01:45;28.27;;;14.03;;
11481;SDS011;5797;51.662;6.748;2023-11-21T10:04:14;36.83;;;14.70;;
11481;SDS011;5797;51.662;6.748;2023-11-21T10:06:44;33.03;;;14.43;;
11481;SDS011;5797;51.662;6.748;2023-11-21T10:09:14;37.07;;;15.43;;
11481;SDS011;5797;51.662;6.748;2023-11-21T10:11:44;37.50;;;14.67;;
11481;SDS011;5797;51.662;6.748;2023-11-21T10:14:12;32.77;;;13.87;;
11481;SDS011;5797;51.662;6.748;2023-11-21T10:16:42;38.77;;;14.80;;
11481;SDS011;5797;51.662;6.748;2023-11-21T10:19:14;30.73;;;14.07;;
11481;SDS011;5797;51.662;6.748;2023-11-21T10:21:44;33.60;;;13.40;;
11481;SDS011;5797;51.662;6.748;2023-11-21T10:24:12;34.83;;;14.53;;
11481;SDS011;5797;51.662;6.748;2023-11-21T10:26:42;40.67;;;14.97;;
11481;SDS011;5797;51.662;6.748;2023-11-21T10:29:17;27.30;;;13.43;;
11481;SDS011;5797;51.662;6.748;2023-11-21T10:31:48;26.43;;;11.77;;
11481;SDS011;5797;51.662;6.748;2023-11-21T10:34:18;33.40;;;12.40;;
11481;SDS011;5797;51.662;6.748;2023-11-21T10:36:47;24.43;;;12.10;;
11481;SDS011;5797;51.662;6.748;2023-11-21T10:39:16;25.93;;;11.03;;
11481;SDS011;5797;51.662;6.748;2023-11-21T10:41:45;25.50;;;10.67;;
11481;SDS011;5797;51.662;6.748;2023-11-21T10:44:14;28.00;;;12.10;;
11481;SDS011;5797;51.662;6.748;2023-11-21T10:46:49;27.67;;;12.33;;
11481;SDS011;5797;51.662;6.748;2023-11-21T10:49:19;26.87;;;11.03;;
11481;SDS011;5797;51.662;6.748;2023-11-21T10:51:47;22.63;;;11.10;;
11481;SDS011;5797;51.662;6.748;2023-11-21T10:54:21;23.27;;;11.13;;
11481;SDS011;5797;51.662;6.748;2023-11-21T10:56:50;25.30;;;12.30;;
11481;SDS011;5797;51.662;6.748;2023-11-21T10:59:23;21.97;;;11.03;;
11481;SDS011;5797;51.662;6.748;2023-11-21T11:01:55;27.80;;;12.73;;
11481;SDS011;5797;51.662;6.748;2023-11-21T11:04:27;23.30;;;11.37;;
11481;SDS011;5797;51.662;6.748;2023-11-21T11:06:57;26.57;;;12.43;;
11481;SDS011;5797;51.662;6.748;2023-11-21T11:09:28;21.67;;;11.10;;
11481;SDS011;5797;51.662;6.748;2023-11-21T11:11:57;27.00;;;10.70;;
11481;SDS011;5797;51.662;6.748;2023-11-21T11:14:26;24.93;;;11.37;;
11481;SDS011;5797;51.662;6.748;2023-11-21T11:16:56;26.00;;;11.77;;
11481;SDS011;5797;51.662;6.748;2023-11-21T11:19:26;25.97;;;11.27;;
11481;SDS011;5797;51.662;6.748;2023-11-21T11:24:47;22.63;;;11.47;;
11481;SDS011;5797;51.662;6.748;2023-11-21T11:27:25;24.33;;;11.10;;
11481;SDS011;5797;51.662;6.748;2023-11-21T11:30:02;24.13;;;10.40;;
11481;SDS011;5797;51.662;6.748;2023-11-21T11:32:40;25.37;;;11.80;;
11481;SDS011;5797;51.662;6.748;2023-11-21T11:35:17;23.80;;;11.33;;
11481;SDS011;5797;51.662;6.748;2023-11-21T11:37:47;26.00;;;11.43;;
11481;SDS011;5797;51.662;6.748;2023-11-21T11:40:16;30.00;;;12.47;;
11481;SDS011;5797;51.662;6.748;2023-11-21T11:42:56;27.47;;;12.63;;
11481;SDS011;5797;51.662;6.748;2023-11-21T11:45:26;23.63;;;11.37;;
11481;SDS011;5797;51.662;6.748;2023-11-21T11:48:02;28.13;;;13.20;;
11481;SDS011;5797;51.662;6.748;2023-11-21T11:50:31;28.20;;;11.83;;
11481;SDS011;5797;51.662;6.748;2023-11-21T11:53:11;25.43;;;11.67;;
11481;SDS011;5797;51.662;6.748;2023-11-21T11:55:40;24.30;;;11.13;;
11481;SDS011;5797;51.662;6.748;2023-11-21T11:58:09;27.33;;;12.33;;
11481;SDS011;5797;51.662;6.748;2023-11-21T12:00:38;27.37;;;12.63;;
11481;SDS011;5797;51.662;6.748;2023-11-21T12:03:09;27.73;;;12.60;;
11481;SDS011;5797;51.662;6.748;2023-11-21T12:05:37;26.93;;;11.70;;
11481;SDS011;5797;51.662;6.748;2023-11-21T12:08:07;30.47;;;13.50;;
11481;SDS011;5797;51.662;6.748;2023-11-21T12:10:36;25.33;;;12.17;;
11481;SDS011;5797;51.662;6.748;2023-11-21T12:13:06;27.57;;;12.03;;
11481;SDS011;5797;51.662;6.748;2023-11-21T12:15:37;26.97;;;11.83;;
11481;SDS011;5797;51.662;6.748;2023-11-21T12:18:09;30.63;;;12.23;;
11481;SDS011;5797;51.662;6.748;2023-11-21T12:20:37;23.40;;;11.10;;
11481;SDS011;5797;51.662;6.748;2023-11-21T12:23:08;26.87;;;12.43;;
11481;SDS011;5797;51.662;6.748;2023-11-21T12:25:38;22.33;;;10.47;;
11481;SDS011;5797;51.662;6.748;2023-11-21T12:28:09;22.13;;;11.80;;
11481;SDS011;5797;51.662;6.748;2023-11-21T12:30:38;31.23;;;11.80;;
11481;SDS011;5797;51.662;6.748;2023-11-21T12:33:08;29.53;;;11.87;;
11481;SDS011;5797;51.662;6.748;2023-11-21T12:35:37;27.20;;;11.87;;
11481;SDS011;5797;51.662;6.748;2023-11-21T12:38:05;30.10;;;13.07;;
11481;SDS011;5797;51.662;6.748;2023-11-21T12:40:35;32.13;;;13.03;;
11481;SDS011;5797;51.662;6.748;2023-11-21T12:43:04;34.07;;;13.73;;
11481;SDS011;5797;51.662;6.748;2023-11-21T12:45:34;30.67;;;13.07;;
11481;SDS011;5797;51.662;6.748;2023-11-21T12:48:05;30.70;;;13.70;;
11481;SDS011;5797;51.662;6.748;2023-11-21T12:50:39;29.90;;;13.47;;
11481;SDS011;5797;51.662;6.748;2023-11-21T12:53:09;28.37;;;13.23;;
11481;SDS011;5797;51.662;6.748;2023-11-21T12:55:39;28.20;;;12.80;;
11481;SDS011;5797;51.662;6.748;2023-11-21T12:58:09;30.80;;;11.80;;
11481;SDS011;5797;51.662;6.748;2023-11-21T13:00:40;28.40;;;12.47;;
11481;SDS011;5797;51.662;6.748;2023-11-21T13:03:11;32.27;;;12.03;;
11481;SDS011;5797;51.662;6.748;2023-11-21T13:05:45;35.83;;;13.73;;
11481;SDS011;5797;51.662;6.748;2023-11-21T13:08:17;31.80;;;12.10;;
11481;SDS011;5797;51.662;6.748;2023-11-21T13:10:49;26.90;;;12.77;;
11481;SDS011;5797;51.662;6.748;2023-11-21T13:13:19;29.73;;;11.47;;
11481;SDS011;5797;51.662;6.748;2023-11-21T13:15:50;27.77;;;11.87;;
11481;SDS011;5797;51.662;6.748;2023-11-21T13:18:19;27.07;;;12.10;;
11481;SDS011;5797;51.662;6.748;2023-11-21T13:20:50;25.63;;;11.83;;
11481;SDS011;5797;51.662;6.748;2023-11-21T13:23:18;28.00;;;11.83;;
11481;SDS011;5797;51.662;6.748;2023-11-21T13:25:46;25.33;;;12.70;;
11481;SDS011;5797;51.662;6.748;2023-11-21T13:28:20;29.07;;;12.57;;
11481;SDS011;5797;51.662;6.748;2023-11-21T13:30:51;22.03;;;11.07;;
11481;SDS011;5797;51.662;6.748;2023-11-21T13:33:20;24.63;;;11.30;;
11481;SDS011;5797;51.662;6.748;2023-11-21T13:35:55;23.57;;;11.03;;
11481;SDS011;5797;51.662;6.748;2023-11-21T13:38:24;23.17;;;10.73;;
11481;SDS011;5797;51.662;6.748;2023-11-21T13:40:58;22.83;;;10.90;;
11481;SDS011;5797;51.662;6.748;2023-11-21T13:43:27;23.83;;;10.77;;
11481;SDS011;5797;51.662;6.748;2023-11-21T13:45:56;21.87;;;11.07;;
11481;SDS011;5797;51.662;6.748;2023-11-21T13:48:28;20.53;;;10.00;;
11481;SDS011;5797;51.662;6.748;2023-11-21T13:51:02;21.40;;;10.13;;
11481;SDS011;5797;51.662;6.748;2023-11-21T13:53:43;19.73;;;9.07;;
11481;SDS011;5797;51.662;6.748;2023-11-21T13:56:14;21.50;;;10.30;;
11481;SDS011;5797;51.662;6.748;2023-11-21T13:58:46;23.87;;;10.23;;
11481;SDS011;5797;51.662;6.748;2023-11-21T14:01:18;19.73;;;9.80;;
11481;SDS011;5797;51.662;6.748;2023-11-21T14:04:12;20.97;;;10.00;;
11481;SDS011;5797;51.662;6.748;2023-11-21T14:06:48;17.00;;;9.43;;
11481;SDS011;5797;51.662;6.748;2023-11-21T14:09:19;22.20;;;9.40;;
11481;SDS011;5797;51.662;6.748;2023-11-21T14:11:51;18.33;;;8.73;;
11481;SDS011;5797;51.662;6.748;2023-11-21T14:14:22;17.67;;;9.33;;
11481;SDS011;5797;51.662;6.748;2023-11-21T14:16:52;19.47;;;8.20;;
11481;SDS011;5797;51.662;6.748;2023-11-21T14:19:20;16.43;;;8.10;;
11481;SDS011;5797;51.662;6.748;2023-11-21T14:21:50;16.07;;;7.67;;
11481;SDS011;5797;51.662;6.748;2023-11-21T14:24:19;13.30;;;7.47;;
11481;SDS011;5797;51.662;6.748;2023-11-21T14:26:50;18.00;;;7.87;;
11481;SDS011;5797;51.662;6.748;2023-11-21T14:29:20;19.47;;;7.50;;
11481;SDS011;5797;51.662;6.748;2023-11-21T14:31:50;13.60;;;6.80;;
11481;SDS011;5797;51.662;6.748;2023-11-21T14:34:20;13.67;;;7.20;;
11481;SDS011;5797;51.662;6.748;2023-11-21T14:36:50;17.37;;;7.80;;
11481;SDS011;5797;51.662;6.748;2023-11-21T14:39:19;13.67;;;6.33;;
11481;SDS011;5797;51.662;6.748;2023-11-21T14:41:50;12.60;;;6.87;;
11481;SDS011;5797;51.662;6.748;2023-11-21T14:44:20;14.93;;;6.50;;
11481;SDS011;5797;51.662;6.748;2023-11-21T14:46:52;13.83;;;6.77;;
11481;SDS011;5797;51.662;6.748;2023-11-21T14:49:24;12.90;;;6.37;;
11481;SDS011;5797;51.662;6.748;2023-11-21T14:51:56;12.07;;;6.27;;
11481;SDS011;5797;51.662;6.748;2023-11-21T14:54:27;14.00;;;6.90;;
11481;SDS011;5797;51.662;6.748;2023-11-21T14:57:07;10.33;;;6.00;;